createdAt,value
2019-03-20T00:28:23.019Z,76.95
2019-03-20T00:28:23.587Z,77.14
2019-03-20T00:28:24.187Z,76.95
2019-03-20T00:28:24.786Z,76.95
2019-03-20T00:28:25.388Z,76.86
2019-03-20T00:28:25.988Z,76.76
2019-03-20T00:28:26.586Z,76.86
2019-03-20T00:28:27.184Z,76.67
2019-03-20T00:29:21.185Z,76.76
2019-03-20T00:29:21.751Z,76.95
2019-03-20T00:29:22.351Z,77.14
2019-03-20T00:29:22.950Z,76.76
2019-03-20T00:29:23.549Z,76.95
2019-03-20T00:29:24.149Z,76.76
2019-03-20T00:29:24.750Z,76.95
2019-03-20T00:30:38.778Z,77.33
2019-03-20T00:30:39.372Z,77.04
2019-03-20T00:30:39.972Z,77.33
2019-03-20T00:30:40.571Z,77.33
2019-03-20T00:30:41.173Z,77.33
2019-03-20T00:30:41.771Z,77.04
2019-03-20T00:30:42.371Z,76.95
2019-03-20T00:31:36.475Z,76.76
2019-03-20T00:31:37.024Z,76.67
2019-03-20T00:31:37.624Z,76.48
2019-03-20T00:31:38.225Z,76.67
2019-03-20T00:31:38.823Z,76.67
2019-03-20T00:31:39.423Z,76.38
2019-03-20T00:31:40.024Z,76.86
2019-03-20T00:32:34.080Z,76.48
2019-03-20T00:32:34.676Z,76.57
2019-03-20T00:32:35.276Z,76.48
2019-03-20T00:32:35.876Z,76.48
2019-03-20T00:32:36.475Z,76.57
2019-03-20T00:32:37.074Z,76.57
2019-03-20T00:32:37.675Z,76.57
2019-03-20T00:33:31.735Z,77.04
2019-03-20T00:33:32.329Z,76.86
2019-03-20T00:33:32.930Z,76.86
2019-03-20T00:33:33.527Z,76.86
2019-03-20T00:33:34.127Z,76.76
2019-03-20T00:33:34.727Z,76.86
2019-03-20T00:33:35.326Z,76.86
2019-03-20T00:34:29.410Z,76.95
2019-03-20T00:34:29.988Z,76.86
2019-03-20T00:34:30.579Z,76.95
2019-03-20T00:34:31.179Z,76.95
2019-03-20T00:34:31.781Z,76.95
2019-03-20T00:34:32.379Z,76.95
2019-03-20T00:34:32.979Z,76.86
2019-03-20T00:35:27.042Z,76.89
2019-03-20T00:35:27.633Z,76.80
2019-03-20T00:35:28.232Z,76.89
2019-03-20T00:35:28.832Z,76.89
2019-03-20T00:35:29.432Z,76.89
2019-03-20T00:35:30.031Z,76.80
2019-03-20T00:35:30.631Z,76.80
2019-03-20T00:36:24.688Z,77.08
2019-03-20T00:36:25.284Z,76.80
2019-03-20T00:36:25.885Z,76.89
2019-03-20T00:36:26.484Z,76.70
2019-03-20T00:36:27.084Z,76.80
2019-03-20T00:36:27.685Z,76.70
2019-03-20T00:36:28.284Z,76.70
2019-03-20T00:37:22.341Z,77.18
2019-03-20T00:37:22.942Z,77.18
2019-03-20T00:37:23.535Z,76.99
2019-03-20T00:37:24.137Z,77.08
2019-03-20T00:37:24.737Z,77.18
2019-03-20T00:37:25.335Z,77.37
2019-03-20T00:37:25.934Z,76.80
2019-03-20T00:38:19.993Z,76.89
2019-03-20T00:38:20.591Z,76.89
2019-03-20T00:38:21.187Z,76.99
2019-03-20T00:38:21.788Z,76.89
2019-03-20T00:38:22.389Z,76.99
2019-03-20T00:38:22.988Z,76.99
2019-03-20T00:38:23.587Z,76.89
2019-03-20T00:39:17.668Z,77.18
2019-03-20T00:39:18.239Z,76.99
2019-03-20T00:39:18.840Z,76.99
2019-03-20T00:39:19.440Z,77.18
2019-03-20T00:39:20.041Z,77.08
2019-03-20T00:39:20.638Z,76.99
2019-03-20T00:39:21.239Z,76.89
2019-03-20T00:40:15.296Z,76.99
2019-03-20T00:40:15.892Z,76.89
2019-03-20T00:40:16.492Z,76.89
2019-03-20T00:40:17.091Z,76.70
2019-03-20T00:40:17.694Z,76.51
2019-03-20T00:40:18.291Z,76.61
2019-03-20T00:40:18.890Z,76.70
2019-03-20T00:41:12.948Z,77.56
2019-03-20T00:41:13.544Z,77.75
2019-03-20T00:41:14.144Z,77.56
2019-03-20T00:41:14.743Z,78.03
2019-03-20T00:41:15.343Z,78.03
2019-03-20T00:41:15.946Z,77.65
2019-03-20T00:41:16.542Z,77.84
2019-03-20T00:42:10.602Z,78.22
2019-03-20T00:42:11.197Z,78.35
2019-03-20T00:42:11.796Z,78.03
2019-03-20T00:42:12.398Z,78.45
2019-03-20T00:42:12.995Z,78.13
2019-03-20T00:42:13.594Z,78.26
2019-03-20T00:42:14.194Z,78.22
2019-03-20T00:43:08.252Z,78.83
2019-03-20T00:43:08.852Z,78.92
2019-03-20T00:43:09.456Z,78.83
2019-03-20T00:43:10.047Z,78.83
2019-03-20T00:43:10.646Z,78.92
2019-03-20T00:43:11.248Z,78.83
2019-03-20T00:43:11.850Z,78.83
2019-03-20T00:44:05.930Z,79.49
2019-03-20T00:44:06.499Z,79.30
2019-03-20T00:44:07.100Z,79.30
2019-03-20T00:44:07.700Z,79.39
2019-03-20T00:44:08.299Z,79.30
2019-03-20T00:44:08.898Z,79.58
2019-03-20T00:44:09.505Z,79.58
2019-03-20T00:45:03.556Z,79.77
2019-03-20T00:45:04.151Z,79.96
2019-03-20T00:45:04.751Z,79.87
2019-03-20T00:45:05.361Z,79.96
2019-03-20T00:45:05.951Z,79.87
2019-03-20T00:45:06.551Z,79.96
2019-03-20T00:45:07.150Z,79.87
2019-03-20T00:46:01.212Z,80.44
2019-03-20T00:46:01.803Z,80.53
2019-03-20T00:46:02.402Z,80.53
2019-03-20T00:46:03.006Z,80.53
2019-03-20T00:46:03.605Z,80.63
2019-03-20T00:46:04.203Z,80.53
2019-03-20T00:46:04.802Z,80.63
2019-03-20T00:46:58.867Z,80.91
2019-03-20T00:46:59.454Z,80.91
2019-03-20T00:47:00.054Z,80.91
2019-03-20T00:47:00.654Z,80.53
2019-03-20T00:47:01.253Z,80.91
2019-03-20T00:47:01.852Z,80.91
2019-03-20T00:47:02.453Z,80.72
2019-03-20T00:47:56.514Z,82.43
2019-03-20T00:47:57.107Z,82.43
2019-03-20T00:47:57.706Z,82.52
2019-03-20T00:47:58.306Z,82.52
2019-03-20T00:47:58.905Z,82.52
2019-03-20T00:47:59.508Z,82.52
2019-03-20T00:48:00.109Z,82.24
2019-03-20T00:48:55.112Z,83.66
2019-03-20T00:48:55.680Z,83.85
2019-03-20T00:48:56.284Z,83.85
2019-03-20T00:48:56.880Z,83.85
2019-03-20T00:48:57.479Z,83.66
2019-03-20T00:48:58.078Z,83.75
2019-03-20T00:49:52.635Z,84.80
2019-03-20T00:49:53.242Z,84.80
2019-03-20T00:49:53.829Z,84.80
2019-03-20T00:49:54.429Z,84.89
2019-03-20T00:49:55.028Z,84.80
2019-03-20T00:49:57.976Z,84.89
2019-03-20T00:49:58.081Z,84.89
2019-03-20T00:50:50.284Z,85.65
2019-03-20T00:50:50.882Z,85.69
2019-03-20T00:50:51.485Z,85.50
2019-03-20T00:50:52.081Z,85.69
2019-03-20T00:50:52.680Z,85.55
2019-03-20T00:50:53.280Z,85.65
2019-03-20T00:50:53.881Z,85.60
2019-03-20T00:51:50.398Z,86.50
2019-03-20T00:51:50.993Z,86.64
2019-03-20T00:51:51.597Z,87.07
2019-03-20T00:52:45.590Z,87.45
2019-03-20T00:52:46.190Z,87.12
2019-03-20T00:52:46.785Z,87.16
2019-03-20T00:52:47.385Z,87.07
2019-03-20T00:52:47.985Z,87.30
2019-03-20T00:52:48.586Z,87.16
2019-03-20T00:52:49.186Z,87.07
2019-03-20T00:53:43.241Z,88.30
2019-03-20T00:53:43.835Z,88.59
2019-03-20T00:53:44.434Z,88.49
2019-03-20T00:53:45.036Z,88.59
2019-03-20T00:53:45.637Z,88.49
2019-03-20T00:53:46.236Z,88.44
2019-03-20T00:53:46.840Z,88.11
2019-03-20T00:54:40.919Z,89.82
2019-03-20T00:54:41.487Z,89.63
2019-03-20T00:54:42.095Z,89.63
2019-03-20T00:54:42.688Z,89.82
2019-03-20T00:54:43.286Z,89.91
2019-03-20T00:54:43.889Z,89.72
2019-03-20T00:54:44.486Z,89.72
2019-03-20T00:55:38.545Z,91.24
2019-03-20T00:55:39.143Z,91.28
2019-03-20T00:55:39.739Z,91.57
2019-03-20T00:55:40.339Z,91.43
2019-03-20T00:55:40.939Z,91.43
2019-03-20T00:55:41.539Z,91.76
2019-03-20T00:55:42.138Z,91.57
2019-03-20T00:56:36.194Z,91.66
2019-03-20T00:56:36.793Z,91.76
2019-03-20T00:56:37.391Z,91.95
2019-03-20T00:56:38.052Z,91.47
2019-03-20T00:56:38.591Z,91.85
2019-03-20T00:56:39.190Z,91.85
2019-03-20T00:56:39.791Z,91.66
2019-03-20T00:57:33.847Z,93.65
2019-03-20T00:57:34.443Z,93.37
2019-03-20T00:57:35.043Z,93.65
2019-03-20T00:57:35.643Z,93.65
2019-03-20T00:57:36.245Z,93.65
2019-03-20T00:57:36.851Z,93.27
2019-03-20T00:57:37.444Z,93.27
2019-03-20T00:58:31.501Z,94.32
2019-03-20T00:58:32.096Z,94.32
2019-03-20T00:58:32.694Z,93.46
2019-03-20T00:58:33.296Z,93.84
2019-03-20T00:58:33.894Z,93.46
2019-03-20T00:58:34.494Z,94.04
2019-03-20T00:58:35.095Z,94.42
2019-03-20T00:59:29.176Z,95.17
2019-03-20T00:59:29.749Z,95.36
2019-03-20T00:59:30.344Z,94.98
2019-03-20T00:59:30.944Z,95.17
2019-03-20T00:59:31.544Z,94.98
2019-03-20T00:59:32.146Z,94.98
2019-03-20T00:59:32.744Z,94.98
2019-03-20T01:00:26.807Z,95.65
2019-03-20T01:00:27.399Z,95.36
2019-03-20T01:00:27.999Z,95.65
2019-03-20T01:00:28.598Z,95.55
2019-03-20T01:00:29.198Z,95.55
2019-03-20T01:00:29.797Z,95.45
2019-03-20T01:00:30.396Z,95.45
2019-03-20T01:01:24.454Z,94.89
2019-03-20T01:01:25.049Z,95.65
2019-03-20T01:01:25.649Z,95.84
2019-03-20T01:01:26.250Z,95.84
2019-03-20T01:01:26.849Z,95.74
2019-03-20T01:01:27.449Z,94.98
2019-03-20T01:01:28.049Z,95.74
2019-03-20T01:02:22.105Z,96.22
2019-03-20T01:02:22.702Z,96.31
2019-03-20T01:02:23.302Z,96.22
2019-03-20T01:02:23.902Z,96.03
2019-03-20T01:02:24.505Z,96.31
2019-03-20T01:02:25.101Z,96.31
2019-03-20T01:02:25.700Z,96.22
2019-03-20T01:03:19.762Z,96.50
2019-03-20T01:03:20.354Z,96.41
2019-03-20T01:03:20.953Z,96.50
2019-03-20T01:03:21.553Z,96.31
2019-03-20T01:03:22.154Z,96.50
2019-03-20T01:03:22.753Z,96.31
2019-03-20T01:03:23.353Z,96.22
2019-03-20T01:04:17.443Z,97.83
2019-03-20T01:04:18.010Z,97.92
2019-03-20T01:04:18.608Z,97.73
2019-03-20T01:04:19.205Z,97.83
2019-03-20T01:04:19.806Z,97.64
2019-03-20T01:04:20.404Z,97.92
2019-03-20T01:04:21.004Z,97.73
2019-03-20T01:05:15.060Z,97.83
2019-03-20T01:05:15.656Z,97.83
2019-03-20T01:05:16.256Z,97.64
2019-03-20T01:05:16.858Z,97.45
2019-03-20T01:05:17.457Z,97.64
2019-03-20T01:05:18.056Z,97.54
2019-03-20T01:05:18.656Z,98.02
2019-03-20T01:06:12.717Z,98.02
2019-03-20T01:06:13.309Z,98.02
2019-03-20T01:06:13.910Z,97.92
2019-03-20T01:06:14.509Z,97.97
2019-03-20T01:06:15.109Z,98.02
2019-03-20T01:06:15.711Z,98.11
2019-03-20T01:06:16.309Z,98.39
2019-03-20T01:07:10.373Z,98.73
2019-03-20T01:07:10.961Z,98.82
2019-03-20T01:07:11.566Z,98.68
2019-03-20T01:07:12.161Z,98.82
2019-03-20T01:07:12.761Z,98.82
2019-03-20T01:07:13.361Z,98.92
2019-03-20T01:07:13.960Z,98.63
2019-03-20T01:08:08.017Z,99.68
2019-03-20T01:08:08.616Z,99.87
2019-03-20T01:08:09.213Z,99.68
2019-03-20T01:08:09.813Z,99.87
2019-03-20T01:08:10.414Z,99.87
2019-03-20T01:08:11.011Z,99.87
2019-03-20T01:08:11.611Z,99.87
2019-03-20T01:09:05.679Z,99.99
2019-03-20T01:09:06.263Z,99.99
2019-03-20T01:09:06.864Z,99.99
2019-03-20T01:09:07.464Z,99.99
2019-03-20T01:09:08.063Z,99.99
2019-03-20T01:09:08.662Z,99.99
2019-03-20T01:09:09.264Z,99.99
2019-03-20T01:10:03.353Z,99.99
2019-03-20T01:10:03.917Z,99.99
2019-03-20T01:10:04.516Z,99.99
2019-03-20T01:10:05.115Z,99.99
2019-03-20T01:10:05.715Z,99.99
2019-03-20T01:10:06.315Z,99.99
2019-03-20T01:10:06.915Z,99.99
2019-03-20T01:11:00.974Z,99.99
2019-03-20T01:11:01.568Z,99.99
2019-03-20T01:11:02.169Z,99.99
2019-03-20T01:11:02.767Z,99.99
2019-03-20T01:11:03.368Z,99.99
2019-03-20T01:11:03.968Z,99.99
2019-03-20T01:11:04.581Z,99.99
2019-03-20T01:11:58.624Z,99.99
2019-03-20T01:11:59.221Z,99.99
2019-03-20T01:11:59.818Z,99.99
2019-03-20T01:12:00.419Z,99.99
2019-03-20T01:12:01.018Z,99.99
2019-03-20T01:12:01.617Z,99.99
2019-03-20T01:12:02.219Z,99.99
2019-03-20T01:12:56.275Z,99.99
2019-03-20T01:12:56.873Z,99.99
2019-03-20T01:12:57.472Z,99.99
2019-03-20T01:12:58.074Z,99.99
2019-03-20T01:12:58.670Z,99.99
2019-03-20T01:12:59.270Z,99.99
2019-03-20T01:12:59.873Z,99.99
2019-03-20T01:13:53.927Z,99.99
2019-03-20T01:13:54.524Z,99.99
2019-03-20T01:13:55.126Z,99.99
2019-03-20T01:13:55.721Z,99.99
2019-03-20T01:13:56.321Z,99.99
2019-03-20T01:13:56.923Z,99.99
2019-03-20T01:13:57.522Z,99.99
2019-03-20T01:14:51.582Z,99.99
2019-03-20T01:14:52.175Z,99.99
2019-03-20T01:14:52.776Z,99.99
2019-03-20T01:14:53.374Z,99.99
2019-03-20T01:14:53.980Z,99.99
2019-03-20T01:14:54.575Z,99.99
2019-03-20T01:14:55.173Z,99.99
2019-03-20T01:15:49.255Z,99.99
2019-03-20T01:15:49.840Z,99.99
2019-03-20T01:15:50.424Z,99.99
2019-03-20T01:15:51.023Z,99.99
2019-03-20T01:15:51.628Z,99.99
2019-03-20T01:15:52.224Z,99.99
2019-03-20T01:15:52.822Z,99.99
2019-03-20T01:16:46.371Z,99.99
2019-03-20T01:16:46.966Z,99.99
2019-03-20T01:16:47.568Z,99.99
2019-03-20T01:16:48.167Z,99.99
2019-03-20T01:16:48.767Z,99.99
2019-03-20T01:16:49.366Z,99.99
2019-03-20T01:16:49.965Z,99.99
2019-03-20T01:16:50.566Z,99.99
2019-03-20T01:17:44.534Z,99.99
2019-03-20T01:17:45.135Z,99.99
2019-03-20T01:17:45.786Z,99.99
2019-03-20T01:17:46.330Z,99.99
2019-03-20T01:17:46.928Z,99.99
2019-03-20T01:17:47.529Z,99.99
2019-03-20T01:17:48.129Z,99.99
2019-03-20T01:19:02.154Z,99.99
2019-03-20T01:19:02.754Z,99.99
2019-03-20T01:19:03.351Z,99.99
2019-03-20T01:19:03.951Z,99.99
2019-03-20T01:19:04.548Z,99.99
2019-03-20T01:19:05.152Z,99.99
2019-03-20T01:19:05.749Z,99.99
2019-03-20T01:19:59.806Z,99.99
2019-03-20T01:20:00.402Z,99.99
2019-03-20T01:20:01.002Z,99.99
2019-03-20T01:20:01.609Z,99.99
2019-03-20T01:20:02.202Z,99.99
2019-03-20T01:20:02.802Z,99.99
2019-03-20T01:20:03.401Z,99.99
2019-03-20T01:20:56.981Z,99.99
2019-03-20T01:20:57.543Z,99.99
2019-03-20T01:20:58.142Z,99.99
2019-03-20T01:20:58.741Z,99.99
2019-03-20T01:20:59.343Z,99.99
2019-03-20T01:20:59.941Z,99.99
2019-03-20T01:21:00.540Z,99.99
2019-03-20T01:21:01.141Z,99.99
2019-03-20T01:22:06.786Z,99.99
2019-03-20T01:22:07.380Z,99.99
2019-03-20T01:22:07.979Z,99.99
2019-03-20T01:22:08.580Z,99.99
2019-03-20T01:22:09.179Z,99.99
2019-03-20T01:22:09.779Z,99.99
2019-03-20T01:22:10.378Z,99.99
2019-03-20T01:23:23.795Z,99.99
2019-03-20T01:23:24.384Z,99.99
2019-03-20T01:23:24.984Z,99.99
2019-03-20T01:23:25.593Z,99.99
2019-03-20T01:23:26.184Z,99.99
2019-03-20T01:23:26.787Z,99.99
2019-03-20T01:23:27.383Z,99.99
2019-03-20T01:24:21.440Z,99.99
2019-03-20T01:24:22.036Z,99.99
2019-03-20T01:24:22.637Z,99.99
2019-03-20T01:24:23.235Z,99.99
2019-03-20T01:24:23.836Z,99.99
2019-03-20T01:24:24.436Z,99.99
2019-03-20T01:24:25.036Z,99.99
2019-03-20T01:25:19.091Z,99.99
2019-03-20T01:25:19.688Z,99.99
2019-03-20T01:25:20.287Z,99.99
2019-03-20T01:25:20.891Z,99.99
2019-03-20T01:25:21.489Z,99.99
2019-03-20T01:25:22.096Z,99.99
2019-03-20T01:25:22.687Z,99.99
2019-03-20T01:26:16.768Z,99.99
2019-03-20T01:26:17.339Z,99.99
2019-03-20T01:26:17.939Z,99.99
2019-03-20T01:26:18.539Z,99.99
2019-03-20T01:26:19.139Z,99.99
2019-03-20T01:26:19.739Z,99.99
2019-03-20T01:26:20.338Z,99.99
2019-03-20T01:27:14.397Z,99.99
2019-03-20T01:27:14.991Z,99.99
2019-03-20T01:27:15.591Z,99.99
2019-03-20T01:27:16.191Z,99.99
2019-03-20T01:27:16.791Z,99.99
2019-03-20T01:27:17.391Z,99.99
2019-03-20T01:27:17.994Z,99.99
2019-03-20T01:28:12.046Z,99.99
2019-03-20T01:28:12.644Z,99.99
2019-03-20T01:28:13.272Z,99.99
2019-03-20T01:28:13.841Z,99.99
2019-03-20T01:28:14.443Z,99.99
2019-03-20T01:28:15.042Z,99.99
2019-03-20T01:28:15.642Z,99.99
2019-03-20T01:29:09.699Z,99.99
2019-03-20T01:29:10.296Z,99.99
2019-03-20T01:29:10.894Z,99.99
2019-03-20T01:29:11.497Z,99.99
2019-03-20T01:29:12.096Z,99.99
2019-03-20T01:29:12.693Z,99.99
2019-03-20T01:29:13.295Z,99.99
2019-03-20T01:30:07.353Z,99.99
2019-03-20T01:30:07.946Z,99.99
2019-03-20T01:30:08.546Z,99.99
2019-03-20T01:30:09.146Z,99.99
2019-03-20T01:30:09.745Z,99.99
2019-03-20T01:30:10.345Z,99.99
2019-03-20T01:30:10.945Z,99.99
2019-03-20T01:31:05.005Z,99.99
2019-03-20T01:31:05.598Z,99.99
2019-03-20T01:31:06.198Z,99.99
2019-03-20T01:31:06.798Z,99.99
2019-03-20T01:31:07.397Z,99.99
2019-03-20T01:31:08.000Z,99.99
2019-03-20T01:31:08.597Z,99.99
2019-03-20T01:32:02.677Z,99.99
2019-03-20T01:32:03.251Z,99.99
2019-03-20T01:32:03.849Z,99.99
2019-03-20T01:32:04.450Z,99.99
2019-03-20T01:32:05.054Z,99.99
2019-03-20T01:32:05.649Z,99.99
2019-03-20T01:32:06.251Z,99.99
2019-03-20T01:33:00.308Z,99.99
2019-03-20T01:33:00.902Z,99.99
2019-03-20T01:33:01.502Z,99.99
2019-03-20T01:33:02.101Z,99.99
2019-03-20T01:33:02.703Z,99.99
2019-03-20T01:33:03.302Z,99.99
2019-03-20T01:33:03.901Z,99.99
2019-03-20T01:33:57.957Z,99.99
2019-03-20T01:33:58.552Z,99.99
2019-03-20T01:33:59.154Z,99.99
2019-03-20T01:33:59.753Z,99.99
2019-03-20T01:34:00.357Z,99.99
2019-03-20T01:34:00.952Z,99.99
2019-03-20T01:34:01.554Z,99.99
2019-03-20T01:34:55.608Z,99.99
2019-03-20T01:34:56.206Z,99.99
2019-03-20T01:34:56.804Z,99.99
2019-03-20T01:34:57.407Z,99.99
2019-03-20T01:34:58.004Z,99.99
2019-03-20T01:34:58.606Z,99.99
2019-03-20T01:34:59.204Z,99.99
2019-03-20T01:35:53.262Z,99.99
2019-03-20T01:35:53.857Z,99.99
2019-03-20T01:35:54.456Z,99.99
2019-03-20T01:35:55.058Z,99.99
2019-03-20T01:35:55.655Z,99.99
2019-03-20T01:35:56.259Z,99.99
2019-03-20T01:35:56.855Z,99.99
2019-03-20T01:36:50.937Z,99.99
2019-03-20T01:36:51.509Z,99.99
2019-03-20T01:36:52.108Z,99.99
2019-03-20T01:36:52.710Z,99.99
2019-03-20T01:36:53.309Z,99.99
2019-03-20T01:36:53.907Z,99.99
2019-03-20T01:36:54.507Z,99.99
2019-03-20T01:37:48.564Z,99.99
2019-03-20T01:37:49.160Z,99.99
2019-03-20T01:37:49.759Z,99.99
2019-03-20T01:37:50.360Z,99.99
2019-03-20T01:37:50.966Z,99.99
2019-03-20T01:37:51.560Z,99.99
2019-03-20T01:37:52.159Z,99.99
2019-03-20T01:38:46.216Z,99.99
2019-03-20T01:38:46.813Z,99.99
2019-03-20T01:38:47.411Z,99.99
2019-03-20T01:38:48.017Z,99.99
2019-03-20T01:38:48.610Z,99.99
2019-03-20T01:38:49.210Z,99.99
2019-03-20T01:38:49.812Z,99.99
2019-03-20T01:39:43.868Z,99.99
2019-03-20T01:39:44.467Z,99.99
2019-03-20T01:39:45.067Z,99.99
2019-03-20T01:39:45.664Z,99.99
2019-03-20T01:39:46.264Z,99.99
2019-03-20T01:39:46.868Z,99.99
2019-03-20T01:39:47.463Z,99.99
2019-03-20T01:40:41.522Z,99.99
2019-03-20T01:40:42.116Z,99.99
2019-03-20T01:40:42.717Z,99.99
2019-03-20T01:40:43.318Z,99.99
2019-03-20T01:40:43.915Z,99.99
2019-03-20T01:40:44.518Z,99.99
2019-03-20T01:40:45.115Z,99.99
2019-03-20T01:41:39.197Z,99.99
2019-03-20T01:41:39.767Z,99.99
2019-03-20T01:41:40.367Z,99.99
2019-03-20T01:41:40.966Z,99.99
2019-03-20T01:41:41.568Z,99.99
2019-03-20T01:41:42.167Z,99.99
2019-03-20T01:41:42.767Z,99.99
2019-03-20T01:42:36.825Z,99.99
2019-03-20T01:42:37.418Z,99.99
2019-03-20T01:42:38.018Z,99.99
2019-03-20T01:42:38.617Z,99.99
2019-03-20T01:42:39.218Z,99.99
2019-03-20T01:42:39.819Z,99.99
2019-03-20T01:42:40.416Z,99.99
2019-03-20T01:43:34.475Z,99.99
2019-03-20T01:43:35.075Z,99.99
2019-03-20T01:43:35.670Z,99.99
2019-03-20T01:43:36.270Z,99.99
2019-03-20T01:43:36.870Z,99.99
2019-03-20T01:43:37.472Z,99.99
2019-03-20T01:43:38.071Z,99.99
2019-03-20T01:44:32.125Z,99.99
2019-03-20T01:44:32.722Z,99.99
2019-03-20T01:44:33.324Z,99.99
2019-03-20T01:44:33.922Z,99.99
2019-03-20T01:44:34.521Z,99.99
2019-03-20T01:44:35.122Z,99.99
2019-03-20T01:44:35.721Z,99.99
2019-03-20T01:45:29.780Z,99.99
2019-03-20T01:45:30.382Z,99.99
2019-03-20T01:45:30.974Z,99.99
2019-03-20T01:45:31.573Z,99.99
2019-03-20T01:45:32.173Z,99.99
2019-03-20T01:45:32.773Z,99.99
2019-03-20T01:45:33.373Z,99.99
2019-03-20T01:46:27.456Z,99.99
2019-03-20T01:46:28.027Z,99.99
2019-03-20T01:46:28.627Z,99.99
2019-03-20T01:46:29.225Z,99.99
2019-03-20T01:46:29.825Z,99.99
2019-03-20T01:46:30.425Z,99.99
2019-03-20T01:46:31.025Z,99.99
2019-03-20T01:47:25.082Z,99.99
2019-03-20T01:47:25.679Z,99.99
2019-03-20T01:47:26.278Z,99.99
2019-03-20T01:47:26.878Z,99.99
2019-03-20T01:47:27.477Z,99.99
2019-03-20T01:47:28.076Z,99.99
2019-03-20T01:47:28.677Z,99.99
2019-03-20T01:48:22.732Z,99.99
2019-03-20T01:48:23.328Z,99.99
2019-03-20T01:48:23.929Z,99.99
2019-03-20T01:48:24.530Z,99.99
2019-03-20T01:48:25.129Z,99.99
2019-03-20T01:48:25.730Z,99.99
2019-03-20T01:48:26.328Z,99.99
2019-03-20T01:49:20.383Z,99.99
2019-03-20T01:49:20.980Z,99.99
2019-03-20T01:49:21.580Z,99.99
2019-03-20T01:49:22.181Z,99.99
2019-03-20T01:49:22.780Z,99.99
2019-03-20T01:49:23.380Z,99.99
2019-03-20T01:49:24.047Z,99.99
2019-03-20T01:50:18.038Z,99.99
2019-03-20T01:50:18.632Z,99.99
2019-03-20T01:50:19.232Z,99.99
2019-03-20T01:50:19.832Z,99.99
2019-03-20T01:50:20.431Z,99.99
2019-03-20T01:50:21.031Z,99.99
2019-03-20T01:50:21.634Z,99.99
2019-03-20T01:51:15.688Z,99.99
2019-03-20T01:51:16.283Z,99.99
2019-03-20T01:51:16.921Z,99.99
2019-03-20T01:51:17.483Z,99.99
2019-03-20T01:51:18.082Z,99.99
2019-03-20T01:51:18.682Z,99.99
2019-03-20T01:51:19.282Z,99.99
2019-03-20T01:52:13.365Z,99.99
2019-03-20T01:52:13.936Z,99.99
2019-03-20T01:52:14.537Z,99.99
2019-03-20T01:52:15.137Z,99.99
2019-03-20T01:52:15.734Z,99.99
2019-03-20T01:52:16.335Z,99.99
2019-03-20T01:52:16.936Z,99.99
2019-03-20T01:53:10.990Z,99.99
2019-03-20T01:53:11.587Z,99.99
2019-03-20T01:53:12.188Z,99.99
2019-03-20T01:53:12.786Z,99.99
2019-03-20T01:53:13.386Z,99.99
2019-03-20T01:53:13.987Z,99.99
2019-03-20T01:53:14.586Z,99.99
2019-03-20T01:54:08.644Z,99.99
2019-03-20T01:54:09.240Z,99.99
2019-03-20T01:54:09.841Z,99.99
2019-03-20T01:54:10.438Z,99.99
2019-03-20T01:54:11.039Z,99.99
2019-03-20T01:54:11.638Z,99.99
2019-03-20T01:54:12.240Z,99.99
2019-03-20T01:55:06.295Z,99.99
2019-03-20T01:55:06.891Z,99.99
2019-03-20T01:55:07.491Z,99.99
2019-03-20T01:55:08.090Z,99.99
2019-03-20T01:55:08.691Z,99.99
2019-03-20T01:55:09.290Z,99.99
2019-03-20T01:55:09.890Z,99.99
2019-03-20T01:56:03.438Z,99.99
2019-03-20T01:56:04.035Z,99.99
2019-03-20T01:56:04.631Z,99.99
2019-03-20T01:56:05.232Z,99.99
2019-03-20T01:56:05.831Z,99.99
2019-03-20T01:56:06.433Z,99.99
2019-03-20T01:56:07.031Z,99.99
2019-03-20T01:56:07.630Z,99.99
2019-03-20T01:57:01.622Z,99.99
2019-03-20T01:57:02.194Z,99.99
2019-03-20T01:57:02.794Z,99.99
2019-03-20T01:57:03.396Z,99.99
2019-03-20T01:57:03.993Z,99.99
2019-03-20T01:57:04.595Z,99.99
2019-03-20T01:57:05.207Z,99.99
2019-03-20T01:58:19.217Z,99.99
2019-03-20T01:58:19.815Z,99.99
2019-03-20T01:58:20.414Z,99.99
2019-03-20T01:58:21.014Z,99.99
2019-03-20T01:58:21.615Z,99.99
2019-03-20T01:58:22.213Z,99.99
2019-03-20T01:58:22.813Z,99.99
2019-03-20T01:59:16.359Z,99.99
2019-03-20T01:59:16.955Z,99.99
2019-03-20T01:59:17.556Z,99.99
2019-03-20T01:59:18.157Z,99.99
2019-03-20T01:59:18.754Z,99.99
2019-03-20T01:59:19.356Z,99.99
2019-03-20T01:59:19.954Z,99.99
2019-03-20T01:59:20.553Z,99.99
2019-03-20T02:00:14.625Z,99.99
2019-03-20T02:00:15.219Z,99.99
2019-03-20T02:00:15.823Z,99.99
2019-03-20T02:00:16.419Z,99.99
2019-03-20T02:00:17.023Z,99.99
2019-03-20T02:00:17.619Z,99.99
2019-03-20T02:00:18.219Z,99.99
2019-03-20T02:01:12.276Z,99.99
2019-03-20T02:01:12.872Z,99.99
2019-03-20T02:01:13.472Z,99.99
2019-03-20T02:01:14.072Z,99.99
2019-03-20T02:01:14.673Z,99.99
2019-03-20T02:01:15.271Z,99.99
2019-03-20T02:01:15.871Z,99.99
2019-03-20T02:02:09.956Z,99.99
2019-03-20T02:02:10.525Z,99.99
2019-03-20T02:02:11.124Z,99.99
2019-03-20T02:02:11.723Z,99.99
2019-03-20T02:02:12.322Z,99.99
2019-03-20T02:02:12.922Z,99.99
2019-03-20T02:02:13.523Z,99.99
2019-03-20T02:03:07.580Z,99.99
2019-03-20T02:03:08.177Z,99.99
2019-03-20T02:03:08.775Z,99.99
2019-03-20T02:03:09.374Z,99.99
2019-03-20T02:03:09.977Z,99.99
2019-03-20T02:03:10.576Z,99.99
2019-03-20T02:03:11.174Z,99.99
2019-03-20T02:04:05.238Z,99.99
2019-03-20T02:04:05.833Z,99.99
2019-03-20T02:04:06.427Z,99.99
2019-03-20T02:04:07.027Z,99.99
2019-03-20T02:04:07.630Z,99.99
2019-03-20T02:04:08.227Z,99.99
2019-03-20T02:04:08.840Z,99.99
2019-03-20T02:05:02.883Z,99.99
2019-03-20T02:05:03.484Z,99.99
2019-03-20T02:05:04.077Z,99.99
2019-03-20T02:05:04.678Z,99.99
2019-03-20T02:05:05.277Z,99.99
2019-03-20T02:05:05.878Z,99.99
2019-03-20T02:05:06.478Z,99.99
2019-03-20T02:06:00.533Z,99.99
2019-03-20T02:06:01.134Z,99.99
2019-03-20T02:06:01.731Z,99.99
2019-03-20T02:06:02.330Z,99.99
2019-03-20T02:06:02.929Z,99.99
2019-03-20T02:06:03.533Z,99.99
2019-03-20T02:06:04.131Z,99.99
2019-03-20T02:06:58.211Z,99.99
2019-03-20T02:06:58.785Z,99.99
2019-03-20T02:06:59.390Z,99.99
2019-03-20T02:06:59.981Z,99.99
2019-03-20T02:07:00.581Z,99.99
2019-03-20T02:07:01.181Z,99.99
2019-03-20T02:07:01.783Z,99.99
2019-03-20T02:07:55.840Z,99.99
2019-03-20T02:07:56.433Z,99.99
2019-03-20T02:07:57.035Z,99.99
2019-03-20T02:07:57.634Z,99.99
2019-03-20T02:07:58.233Z,99.99
2019-03-20T02:07:58.835Z,99.99
2019-03-20T02:07:59.433Z,99.99
2019-03-20T02:08:53.488Z,99.99
2019-03-20T02:08:54.086Z,99.99
2019-03-20T02:08:54.685Z,99.99
2019-03-20T02:08:55.286Z,99.99
2019-03-20T02:08:55.885Z,99.99
2019-03-20T02:08:56.494Z,99.99
2019-03-20T02:08:57.085Z,99.99
2019-03-20T02:09:51.142Z,99.99
2019-03-20T02:09:51.737Z,99.99
2019-03-20T02:09:52.343Z,99.99
2019-03-20T02:09:52.937Z,99.99
2019-03-20T02:09:53.538Z,99.99
2019-03-20T02:09:54.136Z,99.99
2019-03-20T02:09:54.737Z,99.99
2019-03-20T02:10:48.793Z,99.99
2019-03-20T02:10:49.390Z,99.99
2019-03-20T02:10:49.989Z,99.99
2019-03-20T02:10:50.588Z,99.99
2019-03-20T02:10:51.188Z,99.99
2019-03-20T02:10:51.788Z,99.99
2019-03-20T02:10:52.387Z,99.99
2019-03-20T02:11:46.504Z,99.99
2019-03-20T02:11:47.040Z,99.99
2019-03-20T02:11:47.640Z,99.99
2019-03-20T02:11:48.239Z,99.99
2019-03-20T02:11:48.840Z,99.99
2019-03-20T02:11:49.442Z,99.99
2019-03-20T02:11:50.044Z,99.99
2019-03-20T02:12:44.095Z,99.99
2019-03-20T02:12:44.698Z,99.99
2019-03-20T02:12:45.291Z,99.99
2019-03-20T02:12:45.890Z,99.99
2019-03-20T02:12:46.492Z,99.99
2019-03-20T02:12:47.091Z,99.99
2019-03-20T02:12:47.693Z,99.99
2019-03-20T02:13:41.747Z,99.99
2019-03-20T02:13:42.344Z,99.99
2019-03-20T02:13:42.943Z,99.99
2019-03-20T02:13:43.546Z,99.99
2019-03-20T02:13:44.144Z,99.99
2019-03-20T02:13:44.743Z,99.99
2019-03-20T02:13:45.356Z,99.99
2019-03-20T02:14:39.399Z,99.99
2019-03-20T02:14:39.996Z,99.99
2019-03-20T02:14:40.596Z,99.99
2019-03-20T02:14:41.195Z,99.99
2019-03-20T02:14:41.796Z,99.99
2019-03-20T02:14:42.395Z,99.99
2019-03-20T02:14:42.995Z,99.99
2019-03-20T02:15:39.430Z,99.99
2019-03-20T02:15:39.553Z,99.99
2019-03-20T02:15:39.691Z,99.99